Time;durP1;ratioP1;P1;durP2;ratioP2;P2;SDS_P1;SDS_P2;PMS_P1;PMS_P2;Temp;Humidity;BMP_temperature;BMP_pressure;BME280_temperature;BME280_humidity;BME280_pressure;Samples;Min_cycle;Max_cycle;Signal;HPM_P1;HPM_P2
2022/07/21 00:01:24;;;;;;;21.40;19.23;;;;;;;22.87;97.19;98454.50;4110832;28;21341;-77
2022/07/21 00:03:27;;;;;;;21.60;19.43;;;;;;;22.83;97.77;98455.03;4109580;28;20651;-78
2022/07/21 00:05:30;;;;;;;21.07;18.97;;;;;;;22.79;97.48;98453.69;4109234;28;21199;-81
2022/07/21 00:07:33;;;;;;;21.43;19.33;;;;;;;22.76;97.51;98448.72;4125844;28;20757;-81
2022/07/21 00:09:36;;;;;;;22.03;19.90;;;;;;;22.76;97.83;98456.69;4127290;28;21075;-80
2022/07/21 00:11:40;;;;;;;21.07;18.93;;;;;;;22.76;97.42;98454.03;4110724;28;20637;-78
2022/07/21 00:13:43;;;;;;;21.43;19.37;;;;;;;22.76;97.46;98451.38;4108538;28;20709;-78
2022/07/21 00:15:48;;;;;;;21.00;18.90;;;;;;;22.74;97.39;98448.06;4109497;28;21075;-78
2022/07/21 00:17:52;;;;;;;22.13;19.70;;;;;;;22.72;97.53;98448.25;4092670;28;21019;-78
2022/07/21 00:19:55;;;;;;;21.43;19.10;;;;;;;22.73;97.57;98441.06;4125064;28;21459;-78
2022/07/21 00:21:59;;;;;;;21.83;19.40;;;;;;;22.71;98.03;98427.13;4111419;28;20667;-78
2022/07/21 00:24:02;;;;;;;23.00;20.70;;;;;;;22.70;97.33;98420.13;4109672;28;20639;-78
2022/07/21 00:26:05;;;;;;;22.60;20.50;;;;;;;22.70;97.70;98421.97;4123081;28;20683;-78
2022/07/21 00:28:08;;;;;;;21.80;19.03;;;;;;;22.66;97.25;98437.47;4110750;28;20651;-78
2022/07/21 00:30:13;;;;;;;19.73;17.73;;;;;;;22.59;96.82;98447.09;4110357;28;20652;-78
2022/07/21 00:32:17;;;;;;;20.57;18.67;;;;;;;22.55;96.93;98440.50;4124586;28;20632;-78
2022/07/21 00:34:21;;;;;;;21.50;19.43;;;;;;;22.56;97.38;98442.13;4106664;28;20642;-77
2022/07/21 00:36:24;;;;;;;22.13;20.03;;;;;;;22.56;97.66;98451.94;4109526;28;20669;-78
2022/07/21 00:38:27;;;;;;;22.37;19.70;;;;;;;22.53;97.57;98460.25;4120615;28;20652;-78
2022/07/21 00:40:31;;;;;;;23.70;21.20;;;;;;;22.53;97.95;98447.78;4110272;28;20679;-78
2022/07/21 00:42:36;;;;;;;21.73;19.57;;;;;;;22.53;98.31;98453.09;4109338;28;20659;-78
2022/07/21 00:44:39;;;;;;;22.23;19.60;;;;;;;22.52;97.86;98451.47;4125373;28;20717;-78
2022/07/21 00:46:42;;;;;;;22.07;19.77;;;;;;;22.49;97.77;98449.16;4109874;28;20650;-78
2022/07/21 00:48:47;;;;;;;22.27;20.17;;;;;;;22.45;97.25;98455.78;4112328;28;20643;-80
2022/07/21 00:50:51;;;;;;;22.40;20.20;;;;;;;22.44;97.35;98466.59;4113512;28;20659;-78
2022/07/21 00:52:54;;;;;;;22.20;19.63;;;;;;;22.42;97.55;98472.09;4112765;28;20650;-78
2022/07/21 00:54:57;;;;;;;20.90;19.00;;;;;;;22.40;97.45;98473.25;4125389;28;20637;-78
2022/07/21 00:57:00;;;;;;;21.47;19.47;;;;;;;22.39;97.76;98474.25;4127356;28;21251;-77
2022/07/21 00:59:04;;;;;;;21.50;19.30;;;;;;;22.39;97.42;98471.59;4124891;28;20713;-78
2022/07/21 01:01:07;;;;;;;24.43;21.80;;;;;;;22.39;97.45;98477.75;4110715;28;21210;-78
2022/07/21 01:03:11;;;;;;;23.60;21.03;;;;;;;22.40;97.95;98479.41;4124567;28;22140;-79
2022/07/21 01:05:17;;;;;;;24.33;22.10;;;;;;;22.42;98.19;98484.56;4122239;28;20641;-78
2022/07/21 01:07:21;;;;;;;23.77;21.40;;;;;;;22.44;98.60;98477.22;4105254;28;21288;-78
2022/07/21 01:09:24;;;;;;;23.63;21.43;;;;;;;22.46;98.35;98464.59;4126199;28;20720;-78
2022/07/21 01:11:27;;;;;;;23.20;20.40;;;;;;;22.47;98.77;98460.94;4125781;28;20643;-78
2022/07/21 01:13:31;;;;;;;20.57;18.47;;;;;;;22.46;97.81;98452.16;4124632;28;20657;-78
2022/07/21 01:15:35;;;;;;;21.23;19.17;;;;;;;22.44;97.14;98448.81;4108887;28;20692;-78
2022/07/21 01:17:39;;;;;;;21.00;18.90;;;;;;;22.42;97.11;98452.66;4108566;28;21047;-79
2022/07/21 01:19:42;;;;;;;21.43;18.30;;;;;;;22.40;97.16;98466.13;4126145;28;20641;-79
2022/07/21 01:21:47;;;;;;;20.10;18.10;;;;;;;22.39;96.62;98463.63;4124175;28;20626;-78
2022/07/21 01:23:51;;;;;;;19.97;18.07;;;;;;;22.35;96.81;98459.63;4109311;28;20639;-79
2022/07/21 01:25:54;;;;;;;21.47;19.27;;;;;;;22.33;98.35;98451.81;4108492;28;20636;-78
2022/07/21 01:27:57;;;;;;;22.50;20.30;;;;;;;22.32;97.23;98463.44;4124734;28;21204;-77
2022/07/21 01:30:00;;;;;;;23.00;20.50;;;;;;;22.32;97.77;98466.09;4124353;28;20699;-78
2022/07/21 01:32:04;;;;;;;21.80;19.60;;;;;;;22.33;98.03;98473.09;4122264;28;20642;-78
2022/07/21 01:34:08;;;;;;;23.57;20.93;;;;;;;22.34;98.65;98482.75;4109512;28;20632;-78
2022/07/21 01:36:11;;;;;;;23.50;21.20;;;;;;;22.36;98.19;98482.56;4106978;28;20994;-78
2022/07/21 01:42:58;;;;;;;24.93;21.67;;;;;;;22.35;98.96;98476.41;4093515;28;20643;-78
2022/07/21 01:45:02;;;;;;;23.70;21.40;;;;;;;22.34;98.49;98480.06;4108609;28;20645;-78
2022/07/21 01:47:05;;;;;;;25.10;22.40;;;;;;;22.34;98.78;98479.22;4124989;28;20644;-77
2022/07/21 01:49:09;;;;;;;24.17;21.67;;;;;;;22.35;98.55;98481.72;4120925;28;20652;-77
2022/07/21 01:51:12;;;;;;;23.77;21.47;;;;;;;22.38;98.68;98472.59;4107179;28;20640;-77
2022/07/21 01:53:17;;;;;;;21.20;19.10;;;;;;;22.36;98.57;98478.06;4112113;28;20646;-78
2022/07/21 01:55:20;;;;;;;24.20;21.60;;;;;;;22.33;98.57;98482.91;4107152;28;20725;-77
2022/07/21 01:57:23;;;;;;;24.83;22.40;;;;;;;22.33;98.17;98494.34;4107875;28;20669;-78
2022/07/21 01:59:26;;;;;;;24.50;21.90;;;;;;;22.32;98.21;98486.56;4107052;28;20654;-77
2022/07/21 02:01:30;;;;;;;25.27;22.47;;;;;;;22.32;98.78;98482.06;4128278;28;20706;-77
2022/07/21 02:03:33;;;;;;;23.40;21.00;;;;;;;22.33;99.13;98483.72;4112441;28;20645;-77
2022/07/21 02:05:36;;;;;;;24.37;21.87;;;;;;;22.34;99.08;98497.84;4110369;28;21053;-77
2022/07/21 02:07:39;;;;;;;24.90;22.33;;;;;;;22.34;98.51;98514.63;4092663;29;20709;-78
2022/07/21 02:09:44;;;;;;;24.53;21.93;;;;;;;22.31;99.21;98514.13;4094642;28;20642;-78
2022/07/21 02:11:47;;;;;;;23.00;20.80;;;;;;;22.31;99.21;98512.31;4127226;28;21260;-78
2022/07/21 02:13:50;;;;;;;25.60;23.00;;;;;;;22.33;98.55;98510.31;4127928;28;20655;-78
2022/07/21 02:15:54;;;;;;;24.30;21.80;;;;;;;22.33;98.29;98518.28;4127753;28;21046;-78
2022/07/21 02:17:57;;;;;;;23.73;21.37;;;;;;;22.33;98.52;98522.78;4126851;28;20743;-78
2022/07/21 02:20:00;;;;;;;24.73;22.33;;;;;;;22.33;98.73;98528.91;4130574;28;20645;-78
2022/07/21 02:22:03;;;;;;;25.30;22.57;;;;;;;22.35;99.42;98528.75;4130381;28;20729;-81
2022/07/21 02:24:07;;;;;;;25.97;23.20;;;;;;;22.35;98.97;98539.38;4126617;28;20672;-77
2022/07/21 02:26:12;;;;;;;24.87;21.87;;;;;;;22.35;99.11;98534.06;4109344;28;20635;-78
2022/07/21 02:28:15;;;;;;;24.77;22.47;;;;;;;22.35;99.25;98534.91;4127723;28;20624;-78
2022/07/21 02:30:18;;;;;;;24.87;22.33;;;;;;;22.35;99.51;98537.56;4126830;28;20740;-78
2022/07/21 02:32:21;;;;;;;26.00;22.17;;;;;;;22.37;99.32;98538.25;4128119;28;21161;-77
2022/07/21 02:34:24;;;;;;;23.90;21.40;;;;;;;22.37;98.82;98540.91;4128553;28;21237;-78
2022/07/21 02:36:27;;;;;;;24.23;21.70;;;;;;;22.37;99.17;98537.38;4115123;28;20647;-77
2022/07/21 02:38:30;;;;;;;22.80;20.50;;;;;;;22.34;98.82;98527.94;4127007;28;20662;-77
2022/07/21 02:40:34;;;;;;;25.13;22.00;;;;;;;22.32;98.89;98529.91;4110151;28;20640;-77
2022/07/21 02:42:39;;;;;;;25.63;22.27;;;;;;;22.33;98.57;98528.09;4125336;28;20623;-77
2022/07/21 02:44:42;;;;;;;22.73;20.47;;;;;;;22.33;98.50;98541.41;4108579;28;21151;-77
2022/07/21 02:46:45;;;;;;;25.47;22.77;;;;;;;22.34;99.06;98543.88;4125415;28;21172;-79
2022/07/21 02:48:48;;;;;;;23.87;21.57;;;;;;;22.36;98.96;98551.69;4113976;28;20645;-78
2022/07/21 02:50:52;;;;;;;24.90;22.47;;;;;;;22.37;99.37;98546.22;4112353;28;20630;-77
2022/07/21 02:52:56;;;;;;;24.20;21.57;;;;;;;22.37;98.70;98548.88;4110682;28;20684;-77
2022/07/21 02:54:59;;;;;;;27.80;22.73;;;;;;;22.35;99.66;98561.47;4110866;28;20693;-78
2022/07/21 02:57:02;;;;;;;25.60;22.95;;;;;;;22.35;99.39;98556.16;4111266;28;21065;-77
2022/07/21 02:59:07;;;;;;;25.07;22.57;;;;;;;22.36;99.69;98546.38;4111423;28;20667;-78
2022/07/21 03:01:10;;;;;;;25.00;22.50;;;;;;;22.38;99.72;98542.53;4123980;28;20652;-78
2022/07/21 03:03:15;;;;;;;25.73;22.97;;;;;;;22.39;99.66;98532.75;4127076;28;20685;-77
2022/07/21 03:05:19;;;;;;;25.00;22.50;;;;;;;22.38;98.89;98534.56;4124940;28;20690;-77
2022/07/21 03:07:23;;;;;;;26.03;23.50;;;;;;;22.37;99.82;98532.91;4126949;28;20654;-78
2022/07/21 03:09:26;;;;;;;24.97;22.40;;;;;;;22.36;99.06;98528.59;4116584;28;20645;-77
2022/07/21 03:11:32;;;;;;;23.57;21.20;;;;;;;22.36;99.10;98527.78;4108957;28;20665;-77
2022/07/21 03:13:35;;;;;;;24.90;22.27;;;;;;;22.34;100.00;98527.94;4125705;28;20754;-77
2022/07/21 03:15:40;;;;;;;24.50;21.90;;;;;;;22.32;100.00;98527.25;4124790;28;20697;-78
2022/07/21 03:17:43;;;;;;;24.93;22.17;;;;;;;22.31;100.00;98524.75;4125650;28;20691;-77
2022/07/21 03:19:46;;;;;;;25.67;22.70;;;;;;;22.28;99.99;98528.59;4111981;28;20753;-78
2022/07/21 03:21:49;;;;;;;25.10;22.60;;;;;;;22.29;100.00;98534.75;4110253;28;20642;-78
2022/07/21 03:23:52;;;;;;;26.70;24.00;;;;;;;22.31;100.00;98535.38;4111775;28;20629;-77
2022/07/21 03:25:55;;;;;;;24.93;22.33;;;;;;;22.31;100.00;98536.25;4111644;28;21166;-78
2022/07/21 03:27:59;;;;;;;24.90;22.03;;;;;;;22.32;100.00;98537.88;4125469;28;20650;-77
2022/07/21 03:30:02;;;;;;;25.40;22.80;;;;;;;22.32;99.60;98539.72;4114378;28;20686;-78
2022/07/21 03:32:07;;;;;;;26.73;23.97;;;;;;;22.28;99.78;98543.69;4111016;28;20631;-78
2022/07/21 03:34:09;;;;;;;25.00;22.30;;;;;;;;;;4128177;28;20973;-78
2022/07/21 03:36:13;;;;;;;25.40;22.90;;;;;;;22.29;99.86;98535.56;4126363;28;21023;-78
2022/07/21 03:38:16;;;;;;;26.90;23.27;;;;;;;22.28;100.00;98541.91;4107498;28;20754;-78
2022/07/21 03:40:23;;;;;;;25.33;22.67;;;;;;;22.28;100.00;98547.22;4108177;28;21010;-78
2022/07/21 03:42:27;;;;;;;25.23;22.57;;;;;;;22.27;100.00;98545.53;4123281;28;20640;-78
2022/07/21 03:44:30;;;;;;;25.00;22.60;;;;;;;22.27;100.00;98545.53;4124899;28;21049;-77
2022/07/21 03:46:33;;;;;;;26.73;23.70;;;;;;;22.28;100.00;98551.69;4124244;28;21024;-78
2022/07/21 03:48:38;;;;;;;25.63;22.77;;;;;;;;;;4113078;28;21489;-77
2022/07/21 03:50:42;;;;;;;24.17;21.60;;;;;;;;;;4110178;28;20647;-78
2022/07/21 03:52:45;;;;;;;27.90;22.67;;;;;;;22.28;100.00;98560.50;4126601;28;20629;-77
2022/07/21 03:54:48;;;;;;;22.93;20.63;;;;;;;;;;4129451;28;20630;-78
2022/07/21 03:56:51;;;;;;;24.47;21.97;;;;;;;22.31;100.00;98575.28;4123158;28;20685;-78
2022/07/21 03:58:55;;;;;;;23.60;21.30;;;;;;;22.31;100.00;98570.81;4105148;28;20675;-78
2022/07/21 04:00:58;;;;;;;23.97;21.50;;;;;;;22.30;100.00;98574.44;4110338;28;20641;-77
2022/07/21 04:03:02;;;;;;;24.03;21.70;;;;;;;22.31;100.00;98572.63;4125034;28;20641;-78
2022/07/21 04:05:07;;;;;;;26.77;24.00;;;;;;;22.31;100.00;98575.28;4115466;28;20657;-78
2022/07/21 04:07:10;;;;;;;28.50;23.47;;;;;;;22.29;100.00;98577.28;4094773;28;20732;-78
2022/07/21 04:09:13;;;;;;;23.77;21.47;;;;;;;22.31;100.00;98578.78;4127714;28;20640;-78
2022/07/21 04:11:16;;;;;;;26.13;23.50;;;;;;;22.32;100.00;98572.44;4107570;28;21246;-77
2022/07/21 04:13:19;;;;;;;27.10;24.30;;;;;;;22.33;100.00;98573.31;4110691;28;20990;-78
2022/07/21 04:15:28;;;;;;;27.03;24.27;;;;;;;22.32;100.00;98576.94;4110344;28;20643;-77
2022/07/21 04:17:32;;;;;;;25.00;22.17;;;;;;;22.32;100.00;98577.78;4124607;28;20657;-78
2022/07/21 04:19:35;;;;;;;26.30;23.70;;;;;;;22.34;100.00;98577.59;4113782;28;20678;-78
2022/07/21 04:21:39;;;;;;;26.50;23.90;;;;;;;22.34;100.00;98577.59;4112668;28;20625;-78
2022/07/21 04:23:42;;;;;;;25.13;22.63;;;;;;;22.35;100.00;98580.09;4113312;28;21060;-78
2022/07/21 04:25:45;;;;;;;25.30;22.80;;;;;;;22.36;100.00;98586.25;4112308;28;20643;-78
2022/07/21 04:27:49;;;;;;;24.20;21.90;;;;;;;22.37;100.00;98580.78;4125896;28;20637;-77
2022/07/21 04:29:53;;;;;;;26.27;23.63;;;;;;;22.38;100.00;98587.75;4126661;28;20677;-77
2022/07/21 04:31:57;;;;;;;25.13;22.60;;;;;;;22.38;100.00;98581.59;4108206;28;20674;-78
2022/07/21 04:34:00;;;;;;;24.70;22.33;;;;;;;22.39;99.98;98586.75;4127133;28;21081;-78
2022/07/21 04:36:03;;;;;;;24.83;22.43;;;;;;;22.40;100.00;98601.72;4109864;28;20674;-78
2022/07/21 04:38:09;;;;;;;24.33;21.90;;;;;;;22.41;100.00;98597.22;4123980;28;20649;-78
2022/07/21 04:40:13;;;;;;;24.13;21.63;;;;;;;22.39;99.54;98589.41;4125865;28;21233;-78
2022/07/21 04:42:17;;;;;;;25.30;22.70;;;;;;;22.40;100.00;98600.88;4124959;28;20684;-78
2022/07/21 04:44:20;;;;;;;24.70;22.23;;;;;;;22.40;100.00;98604.38;4128954;28;20658;-78
2022/07/21 04:46:23;;;;;;;23.87;21.47;;;;;;;22.41;100.00;98606.03;4108220;28;20749;-77
2022/07/21 04:48:26;;;;;;;26.60;23.70;;;;;;;22.43;100.00;98601.41;4123926;28;21365;-77
2022/07/21 04:50:32;;;;;;;24.87;22.53;;;;;;;22.45;100.00;98598.56;4127267;28;20651;-77
2022/07/21 04:52:35;;;;;;;25.37;22.67;;;;;;;22.47;100.00;98593.91;4109499;28;20739;-79
2022/07/21 04:54:40;;;;;;;24.30;21.90;;;;;;;22.48;100.00;98596.41;4095707;28;20633;-77
2022/07/21 04:56:44;;;;;;;22.87;20.70;;;;;;;22.48;100.00;98599.06;4124001;28;21254;-78
2022/07/21 04:58:48;;;;;;;22.20;20.00;;;;;;;22.49;100.00;98598.06;4124411;28;20788;-78
2022/07/21 05:00:51;;;;;;;24.40;21.90;;;;;;;22.51;99.73;98612.03;4124622;28;20737;-77
2022/07/21 05:02:55;;;;;;;23.63;21.33;;;;;;;22.52;100.00;98611.03;4123018;28;20642;-78
2022/07/21 05:04:58;;;;;;;23.83;21.47;;;;;;;22.55;100.00;98612.50;4109573;28;20665;-78
2022/07/21 05:07:02;;;;;;;23.30;20.97;;;;;;;22.55;100.00;98617.84;4125460;28;21418;-79
2022/07/21 05:09:06;;;;;;;23.90;21.43;;;;;;;22.55;99.37;98608.06;4109596;28;20641;-78
2022/07/21 05:11:10;;;;;;;22.73;20.57;;;;;;;22.53;99.51;98606.53;4110382;28;20627;-78
2022/07/21 05:13:13;;;;;;;22.30;20.20;;;;;;;22.49;98.57;98610.53;4124183;28;20681;-79
2022/07/21 05:15:17;;;;;;;22.83;20.17;;;;;;;22.49;98.76;98611.38;4124350;28;20672;-78
2022/07/21 05:17:21;;;;;;;23.37;20.90;;;;;;;22.52;99.24;98610.19;4094843;28;20641;-78
2022/07/21 05:19:27;;;;;;;23.90;21.47;;;;;;;22.53;99.54;98609.19;4111486;28;20974;-78
2022/07/21 05:21:30;;;;;;;23.43;21.07;;;;;;;22.55;99.29;98618.69;4125000;28;20640;-78
2022/07/21 05:23:33;;;;;;;22.53;20.13;;;;;;;22.56;98.14;98609.69;4107244;28;21255;-78
2022/07/21 05:25:37;;;;;;;23.00;20.60;;;;;;;22.58;98.76;98607.72;4121392;28;20639;-78
2022/07/21 05:27:42;;;;;;;24.33;21.93;;;;;;;22.63;98.10;98616.03;4110198;28;20690;-78
2022/07/21 05:29:45;;;;;;;23.17;20.83;;;;;;;22.72;98.65;98615.03;4110586;28;20668;-78
2022/07/21 05:31:48;;;;;;;22.53;20.33;;;;;;;22.82;98.72;98613.00;4125693;28;20767;-78
2022/07/21 05:33:51;;;;;;;23.80;20.53;;;;;;;22.93;98.60;98615.34;4110962;28;21019;-77
2022/07/21 05:35:55;;;;;;;23.97;21.40;;;;;;;23.02;98.02;98614.34;4106126;28;20714;-80
2022/07/21 05:37:58;;;;;;;22.80;20.40;;;;;;;23.07;97.79;98617.34;4125959;28;21249;-78
2022/07/21 05:40:01;;;;;;;23.00;20.70;;;;;;;23.13;98.42;98612.16;4108755;28;20654;-78
2022/07/21 05:42:05;;;;;;;23.03;20.63;;;;;;;23.22;98.40;98617.28;4108065;28;21222;-77
2022/07/21 05:44:10;;;;;;;22.60;20.40;;;;;;;23.24;97.76;98609.97;4112122;28;20631;-78
2022/07/21 05:46:13;;;;;;;22.67;20.43;;;;;;;23.23;97.18;98621.63;4122484;28;21119;-76
2022/07/21 05:48:17;;;;;;;22.13;19.60;;;;;;;23.22;97.19;98619.94;4124131;28;20636;-78
2022/07/21 05:50:21;;;;;;;23.50;20.43;;;;;;;23.19;96.54;98622.13;4124211;28;20624;-77
2022/07/21 05:52:24;;;;;;;21.57;19.37;;;;;;;23.14;96.59;98624.50;4127328;28;20646;-78
2022/07/21 05:54:28;;;;;;;23.13;20.70;;;;;;;23.12;96.15;98623.81;4107317;28;20629;-78
2022/07/21 05:56:32;;;;;;;23.33;19.47;;;;;;;23.12;96.58;98626.47;4114492;28;20713;-78
2022/07/21 05:58:36;;;;;;;21.57;19.33;;;;;;;23.12;96.85;98629.13;4112713;28;20649;-78
2022/07/21 06:00:41;;;;;;;21.17;19.03;;;;;;;23.13;96.60;98633.47;4095122;28;20662;-78
2022/07/21 06:02:44;;;;;;;22.53;20.13;;;;;;;23.15;96.17;98641.28;4126030;28;20649;-77
2022/07/21 06:04:48;;;;;;;20.80;18.70;;;;;;;23.41;95.87;98643.56;4106548;28;21048;-79
2022/07/21 06:06:52;;;;;;;21.60;19.30;;;;;;;23.76;95.38;98649.28;4099036;28;20705;-78
2022/07/21 06:08:55;;;;;;;21.97;19.87;;;;;;;24.10;93.35;98660.47;4119730;28;20638;-78
2022/07/21 06:10:59;;;;;;;21.10;18.83;;;;;;;24.39;91.76;98647.31;4126163;28;20752;-79
2022/07/21 06:13:02;;;;;;;20.87;18.77;;;;;;;24.69;90.74;98660.59;4109533;28;20725;-77
2022/07/21 06:15:07;;;;;;;20.27;18.37;;;;;;;24.91;89.12;98654.41;4110450;28;20637;-77
2022/07/21 06:17:11;;;;;;;19.90;17.87;;;;;;;25.12;88.44;98662.59;4108750;28;21221;-77
2022/07/21 06:19:15;;;;;;;23.03;20.37;;;;;;;25.40;87.54;98668.00;4123226;28;21506;-78
2022/07/21 06:21:18;;;;;;;20.57;18.50;;;;;;;25.64;87.35;98665.91;4110681;28;20730;-77
2022/07/21 06:23:22;;;;;;;19.50;17.67;;;;;;;25.60;86.10;98672.63;4112142;28;20672;-77
2022/07/21 06:25:26;;;;;;;20.30;18.30;;;;;;;25.39;86.61;98677.00;4114052;28;20721;-78
2022/07/21 06:27:33;;;;;;;20.37;18.10;;;;;;;25.09;86.50;98670.97;4127115;28;20633;-77
2022/07/21 06:29:36;;;;;;;20.10;18.17;;;;;;;24.85;87.45;98663.13;4109370;28;20639;-78
2022/07/21 06:31:39;;;;;;;20.27;18.17;;;;;;;24.67;87.12;98666.13;4111734;28;20637;-77
2022/07/21 06:33:44;;;;;;;20.33;18.33;;;;;;;24.61;87.77;98670.50;4110031;28;20639;-77
2022/07/21 06:35:47;;;;;;;20.60;18.50;;;;;;;24.63;88.93;98672.81;4120784;28;20648;-81
2022/07/21 06:37:50;;;;;;;20.20;18.30;;;;;;;24.60;88.17;98672.34;4101996;28;20643;-79
2022/07/21 06:39:53;;;;;;;22.93;18.20;;;;;;;24.52;88.93;98669.75;4108969;28;20700;-78
2022/07/21 06:41:56;;;;;;;20.20;18.20;;;;;;;24.42;89.06;98670.97;4107690;28;20724;-79
2022/07/21 06:44:05;;;;;;;21.87;19.60;;;;;;;24.28;88.62;98674.34;4124443;28;21059;-79
2022/07/21 06:46:08;;;;;;;24.33;22.13;;;;;;;24.44;88.61;98672.44;4127416;28;20643;-78
2022/07/21 06:48:12;;;;;;;20.13;18.23;;;;;;;24.81;87.50;98665.34;4122881;28;21237;-78
2022/07/21 06:50:18;;;;;;;20.93;18.83;;;;;;;24.86;86.65;98676.31;4123177;28;20680;-79
2022/07/21 06:52:21;;;;;;;20.93;19.03;;;;;;;24.74;86.74;98675.06;4120075;28;21009;-78
2022/07/21 06:54:24;;;;;;;21.47;19.17;;;;;;;24.69;87.02;98672.09;4109848;28;20634;-79
2022/07/21 06:56:27;;;;;;;19.93;17.87;;;;;;;25.02;85.86;98670.03;4111622;28;21256;-78
2022/07/21 06:58:32;;;;;;;18.33;16.67;;;;;;;25.38;85.09;98675.38;4111565;28;21135;-78
2022/07/21 07:00:42;;;;;;;19.37;17.37;;;;;;;25.83;84.41;98681.41;4130304;28;20737;-78
2022/07/21 07:02:45;;;;;;;20.07;18.10;;;;;;;26.18;83.05;98684.13;4114748;28;21218;-78
2022/07/21 07:04:49;;;;;;;18.70;16.80;;;;;;;26.44;81.42;98683.63;4130138;28;20642;-79
2022/07/21 07:06:55;;;;;;;17.10;15.50;;;;;;;26.69;80.00;98677.75;4127855;28;20714;-78
2022/07/21 07:08:58;;;;;;;16.60;15.00;;;;;;;27.01;79.71;98677.25;4111296;28;20643;-79
2022/07/21 07:11:02;;;;;;;17.37;15.57;;;;;;;26.97;77.27;98674.13;4109927;28;21044;-78
2022/07/21 07:13:05;;;;;;;16.20;14.60;;;;;;;26.70;76.98;98671.34;4108739;28;20636;-78
2022/07/21 07:15:29;;;;;;;15.77;14.13;;;;;;;26.36;78.31;98667.72;4109942;28;20640;-78
2022/07/21 07:17:32;;;;;;;15.90;14.30;;;;;;;26.28;79.04;98674.00;4109499;28;21030;-78
2022/07/21 07:19:35;;;;;;;16.80;15.10;;;;;;;26.63;77.18;98678.50;4130887;28;20758;-79
2022/07/21 07:21:39;;;;;;;15.93;14.33;;;;;;;27.01;77.49;98679.94;4126170;28;21070;-78
2022/07/21 07:23:43;;;;;;;15.90;14.50;;;;;;;27.41;78.39;98682.72;4125839;28;20650;-78
2022/07/21 07:25:46;;;;;;;19.80;17.77;;;;;;;27.61;74.25;98680.03;4112436;28;20686;-78
2022/07/21 07:27:51;;;;;;;15.03;13.50;;;;;;;27.75;75.54;98689.78;4112647;28;20651;-79
2022/07/21 07:29:54;;;;;;;14.83;13.27;;;;;;;27.85;74.99;98689.47;4110148;28;20986;-78
2022/07/21 07:31:57;;;;;;;13.63;12.30;;;;;;;28.01;73.44;98680.06;4109803;28;20723;-78
2022/07/21 07:34:00;;;;;;;13.77;12.50;;;;;;;28.24;73.29;98687.84;4104701;28;20738;-79
2022/07/21 07:36:04;;;;;;;14.30;13.03;;;;;;;28.47;72.69;98689.13;4113249;28;20730;-79
2022/07/21 07:38:07;;;;;;;14.90;13.50;;;;;;;28.43;71.02;98692.44;4111824;28;20679;-78
2022/07/21 07:40:14;;;;;;;14.27;12.77;;;;;;;28.43;70.43;98693.28;4133015;28;20645;-79
2022/07/21 07:42:17;;;;;;;13.60;12.10;;;;;;;28.09;70.74;98692.50;4123598;28;20630;-78
2022/07/21 07:44:20;;;;;;;14.70;13.20;;;;;;;27.82;72.91;98688.00;4128014;28;20635;-79
2022/07/21 07:46:23;;;;;;;14.87;13.37;;;;;;;27.60;71.79;98678.38;4109156;28;20671;-78
2022/07/21 07:48:26;;;;;;;14.33;13.03;;;;;;;27.33;73.53;98678.34;4110578;28;20648;-78
2022/07/21 07:50:29;;;;;;;15.27;13.80;;;;;;;27.16;73.54;98676.97;4110357;28;20633;-78
2022/07/21 07:52:33;;;;;;;15.27;13.97;;;;;;;27.26;76.08;98682.84;4115615;28;20635;-78
2022/07/21 07:54:36;;;;;;;16.67;14.87;;;;;;;27.28;74.76;98679.97;4124448;28;20638;-78
2022/07/21 07:56:40;;;;;;;16.37;14.33;;;;;;;27.70;74.56;98683.38;4128852;28;21081;-78
2022/07/21 07:58:44;;;;;;;14.77;13.43;;;;;;;28.07;73.79;98684.63;4120734;28;21085;-79
2022/07/21 08:00:48;;;;;;;15.93;14.33;;;;;;;28.36;72.02;98678.19;4112927;28;20664;-79
2022/07/21 08:02:59;;;;;;;15.20;13.60;;;;;;;28.54;69.84;98679.25;4109892;28;20638;-79
2022/07/21 08:05:03;;;;;;;16.47;14.10;;;;;;;28.69;70.11;98682.63;4128298;28;20639;-79
2022/07/21 08:07:06;;;;;;;14.23;12.83;;;;;;;28.92;70.67;98683.09;4114059;28;20659;-78
2022/07/21 08:09:09;;;;;;;13.63;12.43;;;;;;;29.05;70.49;98683.94;4112211;28;21205;-78
2022/07/21 08:11:14;;;;;;;13.47;12.27;;;;;;;29.24;69.67;98688.50;4109670;28;20652;-79
2022/07/21 08:13:19;;;;;;;14.53;13.03;;;;;;;29.44;67.27;98683.94;4108826;28;21044;-79
2022/07/21 08:15:22;;;;;;;13.47;12.07;;;;;;;29.21;67.31;98678.13;4110044;28;21229;-79
2022/07/21 08:17:26;;;;;;;14.07;12.80;;;;;;;29.09;68.30;98680.63;4110895;28;21224;-80
2022/07/21 08:19:29;;;;;;;14.47;13.10;;;;;;;29.23;70.80;98685.00;4125664;28;20739;-80
2022/07/21 08:21:33;;;;;;;14.17;12.77;;;;;;;29.45;67.59;98686.41;4107679;28;20686;-80
2022/07/21 08:23:56;;;;;;;14.70;13.07;;;;;;;29.24;67.59;98678.56;4110777;28;21012;-79
2022/07/21 08:26:06;;;;;;;13.90;12.50;;;;;;;28.75;68.82;98681.81;4126492;28;21037;-78
2022/07/21 08:28:10;;;;;;;13.43;12.20;;;;;;;28.38;68.97;98682.28;4125598;28;20641;-79
2022/07/21 08:30:15;;;;;;;12.90;11.80;;;;;;;28.20;70.18;98675.81;4127286;28;20630;-80
2022/07/21 08:32:18;;;;;;;13.60;12.40;;;;;;;28.34;71.20;98682.91;4125395;28;20634;-78
2022/07/21 08:34:22;;;;;;;15.03;13.63;;;;;;;28.75;71.06;98687.19;4113609;28;20688;-78
2022/07/21 08:36:25;;;;;;;12.90;11.80;;;;;;;29.12;67.13;98668.63;4126163;28;20633;-78
2022/07/21 08:38:29;;;;;;;15.00;13.30;;;;;;;29.19;69.63;98681.03;4089168;28;20640;-79
2022/07/21 08:40:34;;;;;;;13.60;12.30;;;;;;;29.13;65.46;98670.28;4125826;28;20635;-78
2022/07/21 08:42:38;;;;;;;13.73;12.33;;;;;;;29.41;67.25;98668.22;4110086;28;21176;-78
2022/07/21 08:44:41;;;;;;;12.67;11.57;;;;;;;29.54;65.58;98669.03;4123796;28;20640;-78
2022/07/21 08:46:50;;;;;;;13.83;12.53;;;;;;;29.43;65.49;98671.53;4109556;28;21078;-78
2022/07/21 08:48:54;;;;;;;14.70;13.20;;;;;;;29.73;67.30;98670.88;4109584;28;20636;-78
2022/07/21 08:50:58;;;;;;;12.80;11.50;;;;;;;29.51;65.88;98673.00;4118916;28;21226;-78
2022/07/21 08:53:02;;;;;;;13.10;11.80;;;;;;;29.17;66.62;98655.41;4118629;28;20674;-78
2022/07/21 08:55:06;;;;;;;13.80;12.40;;;;;;;28.86;67.02;98665.09;4111038;28;20644;-80
2022/07/21 08:57:09;;;;;;;12.60;11.40;;;;;;;28.60;68.60;98656.97;4119648;28;20742;-77
2022/07/21 08:59:13;;;;;;;14.30;12.13;;;;;;;28.43;70.61;98653.00;4123210;28;20695;-82
2022/07/21 09:01:16;;;;;;;14.47;10.20;;;;;;;28.30;67.91;98647.56;4091900;28;20990;-80
2022/07/21 09:03:22;;;;;;;11.50;10.37;;;;;;;28.37;69.14;98645.75;4112141;28;20635;-78
2022/07/21 09:05:25;;;;;;;11.47;10.37;;;;;;;28.78;69.18;98654.56;4123557;28;20978;-78
2022/07/21 09:07:28;;;;;;;12.43;11.33;;;;;;;29.11;68.13;98657.03;4108225;28;20672;-78
2022/07/21 09:09:34;;;;;;;12.80;9.37;;;;;;;29.41;67.84;98657.47;4125138;28;20824;-78
2022/07/21 09:11:44;;;;;;;9.90;9.00;;;;;;;29.46;63.44;98651.25;4126548;28;20710;-78
2022/07/21 09:13:51;;;;;;;9.50;8.60;;;;;;;29.59;65.24;98651.22;4111249;28;20648;-78
2022/07/21 09:15:55;;;;;;;9.13;8.00;;;;;;;29.81;62.62;98651.84;4105369;28;20685;-78
2022/07/21 09:18:09;;;;;;;10.23;9.23;;;;;;;29.84;64.11;98657.59;4118600;28;20758;-79
2022/07/21 09:20:26;;;;;;;8.70;7.90;;;;;;;29.76;64.69;98651.63;4110860;28;20644;-80
2022/07/21 09:22:29;;;;;;;10.23;9.23;;;;;;;29.87;62.17;98651.81;4121459;28;20669;-78
2022/07/21 09:24:37;;;;;;;9.87;8.57;;;;;;;30.07;63.86;98653.41;4123173;28;20643;-79
2022/07/21 09:27:03;;;;;;;9.90;8.90;;;;;;;30.32;63.23;98650.81;4122889;28;21322;-78
2022/07/21 09:29:10;;;;;;;9.40;8.23;;;;;;;30.25;62.41;98652.69;4110000;28;20637;-78
2022/07/21 09:31:14;;;;;;;9.93;8.80;;;;;;;29.99;62.08;98647.41;4112043;28;20641;-78
2022/07/21 09:33:22;;;;;;;10.17;8.97;;;;;;;29.63;61.76;98641.69;4107555;28;20709;-78
2022/07/21 09:35:26;;;;;;;9.80;8.90;;;;;;;29.32;63.39;98646.09;4122744;28;21161;-78
2022/07/21 09:37:30;;;;;;;8.83;8.03;;;;;;;28.96;63.34;98641.31;4108633;28;20657;-78